sensor_id;sensor_type;location;lat;lon;timestamp;P1;P2;P0
46681;PMS5003;34101;53.430;-2.224;2022-08-19T00:00:33;9;4;
46681;PMS5003;34101;53.430;-2.224;2022-08-19T00:03:00;7;3;
46681;PMS5003;34101;53.430;-2.224;2022-08-19T00:05:27;8;5;
46681;PMS5003;34101;53.430;-2.224;2022-08-19T00:07:54;5;3;
46681;PMS5003;34101;53.430;-2.224;2022-08-19T00:10:22;7;5;
46681;PMS5003;34101;53.430;-2.224;2022-08-19T00:12:49;6;4;
46681;PMS5003;34101;53.430;-2.224;2022-08-19T00:15:18;4;4;
46681;PMS5003;34101;53.430;-2.224;2022-08-19T00:17:47;7;4;
46681;PMS5003;34101;53.430;-2.224;2022-08-19T00:20:16;6;5;
46681;PMS5003;34101;53.430;-2.224;2022-08-19T00:22:46;3;3;
46681;PMS5003;34101;53.430;-2.224;2022-08-19T00:25:14;3;3;
46681;PMS5003;34101;53.430;-2.224;2022-08-19T00:27:41;2;2;
46681;PMS5003;34101;53.430;-2.224;2022-08-19T00:30:09;7;4;
46681;PMS5003;34101;53.430;-2.224;2022-08-19T00:32:38;4;4;
46681;PMS5003;34101;53.430;-2.224;2022-08-19T00:35:06;3;3;
46681;PMS5003;34101;53.430;-2.224;2022-08-19T00:37:33;3;3;
46681;PMS5003;34101;53.430;-2.224;2022-08-19T00:40:02;3;3;
46681;PMS5003;34101;53.430;-2.224;2022-08-19T00:42:32;6;4;
46681;PMS5003;34101;53.430;-2.224;2022-08-19T00:44:59;7;4;
46681;PMS5003;34101;53.430;-2.224;2022-08-19T00:47:27;4;4;
46681;PMS5003;34101;53.430;-2.224;2022-08-19T00:49:55;7;4;
46681;PMS5003;34101;53.430;-2.224;2022-08-19T00:52:26;5;5;
46681;PMS5003;34101;53.430;-2.224;2022-08-19T00:54:55;8;3;
46681;PMS5003;34101;53.430;-2.224;2022-08-19T00:57:26;6;3;
46681;PMS5003;34101;53.430;-2.224;2022-08-19T00:59:57;3;3;
46681;PMS5003;34101;53.430;-2.224;2022-08-19T01:02:25;5;4;
46681;PMS5003;34101;53.430;-2.224;2022-08-19T01:04:53;5;2;
46681;PMS5003;34101;53.430;-2.224;2022-08-19T01:07:22;3;3;
46681;PMS5003;34101;53.430;-2.224;2022-08-19T01:09:50;2;2;
46681;PMS5003;34101;53.430;-2.224;2022-08-19T01:12:18;5;3;
46681;PMS5003;34101;53.430;-2.224;2022-08-19T01:14:45;3;3;
46681;PMS5003;34101;53.430;-2.224;2022-08-19T01:17:13;4;3;
46681;PMS5003;34101;53.430;-2.224;2022-08-19T01:19:43;3;3;
46681;PMS5003;34101;53.430;-2.224;2022-08-19T01:22:15;3;3;
46681;PMS5003;34101;53.430;-2.224;2022-08-19T01:24:48;5;2;
46681;PMS5003;34101;53.430;-2.224;2022-08-19T01:27:15;3;3;
46681;PMS5003;34101;53.430;-2.224;2022-08-19T01:29:43;5;1;
46681;PMS5003;34101;53.430;-2.224;2022-08-19T01:32:12;5;3;
46681;PMS5003;34101;53.430;-2.224;2022-08-19T01:34:41;6;4;
46681;PMS5003;34101;53.430;-2.224;2022-08-19T01:37:10;5;2;
46681;PMS5003;34101;53.430;-2.224;2022-08-19T01:39:38;4;4;
46681;PMS5003;34101;53.430;-2.224;2022-08-19T01:42:07;2;2;
46681;PMS5003;34101;53.430;-2.224;2022-08-19T01:44:35;6;5;
46681;PMS5003;34101;53.430;-2.224;2022-08-19T01:47:04;6;2;
46681;PMS5003;34101;53.430;-2.224;2022-08-19T01:49:32;2;2;
46681;PMS5003;34101;53.430;-2.224;2022-08-19T01:51:59;3;3;
46681;PMS5003;34101;53.430;-2.224;2022-08-19T01:54:27;3;2;
46681;PMS5003;34101;53.430;-2.224;2022-08-19T01:56:56;4;3;
46681;PMS5003;34101;53.430;-2.224;2022-08-19T01:59:27;7;3;
46681;PMS5003;34101;53.430;-2.224;2022-08-19T02:01:54;5;3;
46681;PMS5003;34101;53.430;-2.224;2022-08-19T02:04:21;3;3;
46681;PMS5003;34101;53.430;-2.224;2022-08-19T02:06:49;4;4;
46681;PMS5003;34101;53.430;-2.224;2022-08-19T02:09:16;4;3;
46681;PMS5003;34101;53.430;-2.224;2022-08-19T02:11:44;5;5;
46681;PMS5003;34101;53.430;-2.224;2022-08-19T02:14:11;5;3;
46681;PMS5003;34101;53.430;-2.224;2022-08-19T02:16:38;6;3;
46681;PMS5003;34101;53.430;-2.224;2022-08-19T02:19:06;4;3;
46681;PMS5003;34101;53.430;-2.224;2022-08-19T02:21:33;3;3;
46681;PMS5003;34101;53.430;-2.224;2022-08-19T02:24:02;3;1;
46681;PMS5003;34101;53.430;-2.224;2022-08-19T02:26:30;3;3;
46681;PMS5003;34101;53.430;-2.224;2022-08-19T02:28:58;5;4;
46681;PMS5003;34101;53.430;-2.224;2022-08-19T02:31:26;4;4;
46681;PMS5003;34101;53.430;-2.224;2022-08-19T02:33:54;5;3;
46681;PMS5003;34101;53.430;-2.224;2022-08-19T02:36:21;2;2;
46681;PMS5003;34101;53.430;-2.224;2022-08-19T02:38:50;6;5;
46681;PMS5003;34101;53.430;-2.224;2022-08-19T02:41:18;7;4;
46681;PMS5003;34101;53.430;-2.224;2022-08-19T02:43:48;3;3;
46681;PMS5003;34101;53.430;-2.224;2022-08-19T02:46:16;3;3;
46681;PMS5003;34101;53.430;-2.224;2022-08-19T02:48:45;9;4;
46681;PMS5003;34101;53.430;-2.224;2022-08-19T02:51:15;2;2;
46681;PMS5003;34101;53.430;-2.224;2022-08-19T02:53:44;5;4;
46681;PMS5003;34101;53.430;-2.224;2022-08-19T02:56:12;4;2;
46681;PMS5003;34101;53.430;-2.224;2022-08-19T02:58:39;5;4;
46681;PMS5003;34101;53.430;-2.224;2022-08-19T03:01:07;4;3;
46681;PMS5003;34101;53.430;-2.224;2022-08-19T03:03:34;7;4;
46681;PMS5003;34101;53.430;-2.224;2022-08-19T03:06:03;4;3;
46681;PMS5003;34101;53.430;-2.224;2022-08-19T03:08:32;5;2;
46681;PMS5003;34101;53.430;-2.224;2022-08-19T03:10:59;4;3;
46681;PMS5003;34101;53.430;-2.224;2022-08-19T03:13:27;7;4;
46681;PMS5003;34101;53.430;-2.224;2022-08-19T03:15:54;3;2;
46681;PMS5003;34101;53.430;-2.224;2022-08-19T03:18:21;5;4;
46681;PMS5003;34101;53.430;-2.224;2022-08-19T03:20:50;2;2;
46681;PMS5003;34101;53.430;-2.224;2022-08-19T03:23:18;5;3;
46681;PMS5003;34101;53.430;-2.224;2022-08-19T03:25:46;6;3;
46681;PMS5003;34101;53.430;-2.224;2022-08-19T03:28:14;6;2;
46681;PMS5003;34101;53.430;-2.224;2022-08-19T03:30:42;3;2;
46681;PMS5003;34101;53.430;-2.224;2022-08-19T03:33:20;5;4;
46681;PMS5003;34101;53.430;-2.224;2022-08-19T03:35:52;6;5;
46681;PMS5003;34101;53.430;-2.224;2022-08-19T03:38:27;5;4;
46681;PMS5003;34101;53.430;-2.224;2022-08-19T03:40:54;5;4;
46681;PMS5003;34101;53.430;-2.224;2022-08-19T03:43:22;5;4;
46681;PMS5003;34101;53.430;-2.224;2022-08-19T03:45:58;4;4;
46681;PMS5003;34101;53.430;-2.224;2022-08-19T03:48:27;4;4;
46681;PMS5003;34101;53.430;-2.224;2022-08-19T03:50:54;4;4;
46681;PMS5003;34101;53.430;-2.224;2022-08-19T03:53:22;6;5;
46681;PMS5003;34101;53.430;-2.224;2022-08-19T03:55:49;3;2;
46681;PMS5003;34101;53.430;-2.224;2022-08-19T03:58:16;6;5;
46681;PMS5003;34101;53.430;-2.224;2022-08-19T04:00:44;6;4;
46681;PMS5003;34101;53.430;-2.224;2022-08-19T04:03:11;4;3;
46681;PMS5003;34101;53.430;-2.224;2022-08-19T04:05:39;7;4;
46681;PMS5003;34101;53.430;-2.224;2022-08-19T04:08:06;5;5;
46681;PMS5003;34101;53.430;-2.224;2022-08-19T04:10:35;4;4;
46681;PMS5003;34101;53.430;-2.224;2022-08-19T04:13:02;5;2;
46681;PMS5003;34101;53.430;-2.224;2022-08-19T04:15:29;7;3;
46681;PMS5003;34101;53.430;-2.224;2022-08-19T04:17:57;8;5;
46681;PMS5003;34101;53.430;-2.224;2022-08-19T04:20:24;4;4;
46681;PMS5003;34101;53.430;-2.224;2022-08-19T04:22:51;5;5;
46681;PMS5003;34101;53.430;-2.224;2022-08-19T04:25:19;5;3;
46681;PMS5003;34101;53.430;-2.224;2022-08-19T04:27:46;3;3;
46681;PMS5003;34101;53.430;-2.224;2022-08-19T04:30:14;5;4;
46681;PMS5003;34101;53.430;-2.224;2022-08-19T04:32:41;6;6;
46681;PMS5003;34101;53.430;-2.224;2022-08-19T04:35:08;3;3;
46681;PMS5003;34101;53.430;-2.224;2022-08-19T04:37:36;5;4;
46681;PMS5003;34101;53.430;-2.224;2022-08-19T04:40:05;2;2;
46681;PMS5003;34101;53.430;-2.224;2022-08-19T04:42:33;5;4;
46681;PMS5003;34101;53.430;-2.224;2022-08-19T04:45:01;6;4;
46681;PMS5003;34101;53.430;-2.224;2022-08-19T04:47:29;4;4;
46681;PMS5003;34101;53.430;-2.224;2022-08-19T04:49:57;7;7;
46681;PMS5003;34101;53.430;-2.224;2022-08-19T04:52:24;5;5;
46681;PMS5003;34101;53.430;-2.224;2022-08-19T04:54:51;6;5;
46681;PMS5003;34101;53.430;-2.224;2022-08-19T04:57:18;4;3;
46681;PMS5003;34101;53.430;-2.224;2022-08-19T04:59:46;3;3;
46681;PMS5003;34101;53.430;-2.224;2022-08-19T05:02:13;5;4;
46681;PMS5003;34101;53.430;-2.224;2022-08-19T05:04:41;8;7;
46681;PMS5003;34101;53.430;-2.224;2022-08-19T05:07:08;6;3;
46681;PMS5003;34101;53.430;-2.224;2022-08-19T05:09:36;6;4;
46681;PMS5003;34101;53.430;-2.224;2022-08-19T05:12:03;7;6;
46681;PMS5003;34101;53.430;-2.224;2022-08-19T05:14:30;11;5;
46681;PMS5003;34101;53.430;-2.224;2022-08-19T05:16:57;5;4;
46681;PMS5003;34101;53.430;-2.224;2022-08-19T05:19:25;8;5;
46681;PMS5003;34101;53.430;-2.224;2022-08-19T05:21:52;4;4;
46681;PMS5003;34101;53.430;-2.224;2022-08-19T05:24:21;9;6;
46681;PMS5003;34101;53.430;-2.224;2022-08-19T05:26:50;5;4;
46681;PMS5003;34101;53.430;-2.224;2022-08-19T05:29:19;5;5;
46681;PMS5003;34101;53.430;-2.224;2022-08-19T05:31:48;8;5;
46681;PMS5003;34101;53.430;-2.224;2022-08-19T05:34:16;5;4;
46681;PMS5003;34101;53.430;-2.224;2022-08-19T05:36:44;3;3;
46681;PMS5003;34101;53.430;-2.224;2022-08-19T05:39:12;7;6;
46681;PMS5003;34101;53.430;-2.224;2022-08-19T05:41:41;6;6;
46681;PMS5003;34101;53.430;-2.224;2022-08-19T05:44:09;6;5;
46681;PMS5003;34101;53.430;-2.224;2022-08-19T05:46:37;4;4;
46681;PMS5003;34101;53.430;-2.224;2022-08-19T05:49:05;6;4;
46681;PMS5003;34101;53.430;-2.224;2022-08-19T05:51:33;5;3;
46681;PMS5003;34101;53.430;-2.224;2022-08-19T05:54:02;4;4;
46681;PMS5003;34101;53.430;-2.224;2022-08-19T05:56:31;4;4;
46681;PMS5003;34101;53.430;-2.224;2022-08-19T05:58:59;4;4;
46681;PMS5003;34101;53.430;-2.224;2022-08-19T06:01:27;6;4;
46681;PMS5003;34101;53.430;-2.224;2022-08-19T06:03:54;5;4;
46681;PMS5003;34101;53.430;-2.224;2022-08-19T06:06:22;5;3;
46681;PMS5003;34101;53.430;-2.224;2022-08-19T06:08:49;5;3;
46681;PMS5003;34101;53.430;-2.224;2022-08-19T06:11:18;8;6;
46681;PMS5003;34101;53.430;-2.224;2022-08-19T06:13:47;4;4;
46681;PMS5003;34101;53.430;-2.224;2022-08-19T06:16:16;6;4;
46681;PMS5003;34101;53.430;-2.224;2022-08-19T06:18:44;4;2;
46681;PMS5003;34101;53.430;-2.224;2022-08-19T06:21:12;3;3;
46681;PMS5003;34101;53.430;-2.224;2022-08-19T06:23:39;10;5;
46681;PMS5003;34101;53.430;-2.224;2022-08-19T06:26:07;8;5;
46681;PMS5003;34101;53.430;-2.224;2022-08-19T06:28:38;7;5;
46681;PMS5003;34101;53.430;-2.224;2022-08-19T06:31:06;5;5;
46681;PMS5003;34101;53.430;-2.224;2022-08-19T06:33:34;3;3;
46681;PMS5003;34101;53.430;-2.224;2022-08-19T06:36:03;6;4;
46681;PMS5003;34101;53.430;-2.224;2022-08-19T06:38:31;5;3;
46681;PMS5003;34101;53.430;-2.224;2022-08-19T06:41:00;3;3;
46681;PMS5003;34101;53.430;-2.224;2022-08-19T06:43:28;4;3;
46681;PMS5003;34101;53.430;-2.224;2022-08-19T06:45:55;7;4;
46681;PMS5003;34101;53.430;-2.224;2022-08-19T06:48:22;4;2;
46681;PMS5003;34101;53.430;-2.224;2022-08-19T06:50:50;7;4;
46681;PMS5003;34101;53.430;-2.224;2022-08-19T06:53:17;4;4;
46681;PMS5003;34101;53.430;-2.224;2022-08-19T06:55:44;5;4;
46681;PMS5003;34101;53.430;-2.224;2022-08-19T06:58:12;6;5;
46681;PMS5003;34101;53.430;-2.224;2022-08-19T07:00:39;2;2;
46681;PMS5003;34101;53.430;-2.224;2022-08-19T07:03:07;5;3;
46681;PMS5003;34101;53.430;-2.224;2022-08-19T07:05:38;6;5;
46681;PMS5003;34101;53.430;-2.224;2022-08-19T07:08:06;5;4;
46681;PMS5003;34101;53.430;-2.224;2022-08-19T07:10:33;7;4;
46681;PMS5003;34101;53.430;-2.224;2022-08-19T07:13:00;5;5;
46681;PMS5003;34101;53.430;-2.224;2022-08-19T07:15:28;5;5;
46681;PMS5003;34101;53.430;-2.224;2022-08-19T07:17:55;4;1;
46681;PMS5003;34101;53.430;-2.224;2022-08-19T07:20:23;4;3;
46681;PMS5003;34101;53.430;-2.224;2022-08-19T07:22:50;6;4;
46681;PMS5003;34101;53.430;-2.224;2022-08-19T07:25:18;5;4;
46681;PMS5003;34101;53.430;-2.224;2022-08-19T07:27:45;7;4;
46681;PMS5003;34101;53.430;-2.224;2022-08-19T07:30:14;5;3;
46681;PMS5003;34101;53.430;-2.224;2022-08-19T07:32:42;7;5;
46681;PMS5003;34101;53.430;-2.224;2022-08-19T07:35:09;3;3;
46681;PMS5003;34101;53.430;-2.224;2022-08-19T07:37:36;5;3;
46681;PMS5003;34101;53.430;-2.224;2022-08-19T07:40:05;10;3;
46681;PMS5003;34101;53.430;-2.224;2022-08-19T07:42:34;4;3;
46681;PMS5003;34101;53.430;-2.224;2022-08-19T07:45:01;11;8;
46681;PMS5003;34101;53.430;-2.224;2022-08-19T07:47:29;5;3;
46681;PMS5003;34101;53.430;-2.224;2022-08-19T07:49:56;3;3;
46681;PMS5003;34101;53.430;-2.224;2022-08-19T07:52:24;10;4;
46681;PMS5003;34101;53.430;-2.224;2022-08-19T07:54:51;2;2;
46681;PMS5003;34101;53.430;-2.224;2022-08-19T07:57:19;6;4;
46681;PMS5003;34101;53.430;-2.224;2022-08-19T07:59:46;4;2;
46681;PMS5003;34101;53.430;-2.224;2022-08-19T08:02:13;6;4;
46681;PMS5003;34101;53.430;-2.224;2022-08-19T08:04:41;7;4;
46681;PMS5003;34101;53.430;-2.224;2022-08-19T08:07:08;4;3;
46681;PMS5003;34101;53.430;-2.224;2022-08-19T08:09:36;7;5;
46681;PMS5003;34101;53.430;-2.224;2022-08-19T08:12:07;5;4;
46681;PMS5003;34101;53.430;-2.224;2022-08-19T08:14:37;4;4;
46681;PMS5003;34101;53.430;-2.224;2022-08-19T08:17:05;4;4;
46681;PMS5003;34101;53.430;-2.224;2022-08-19T08:19:34;3;2;
46681;PMS5003;34101;53.430;-2.224;2022-08-19T08:22:02;3;2;
46681;PMS5003;34101;53.430;-2.224;2022-08-19T08:24:30;3;1;
46681;PMS5003;34101;53.430;-2.224;2022-08-19T08:26:58;2;2;
46681;PMS5003;34101;53.430;-2.224;2022-08-19T08:29:27;7;3;
46681;PMS5003;34101;53.430;-2.224;2022-08-19T08:31:57;3;3;
46681;PMS5003;34101;53.430;-2.224;2022-08-19T08:34:24;6;2;
46681;PMS5003;34101;53.430;-2.224;2022-08-19T08:36:51;1;1;
46681;PMS5003;34101;53.430;-2.224;2022-08-19T08:39:20;2;2;
46681;PMS5003;34101;53.430;-2.224;2022-08-19T08:41:50;7;2;
46681;PMS5003;34101;53.430;-2.224;2022-08-19T08:44:23;4;2;
46681;PMS5003;34101;53.430;-2.224;2022-08-19T08:46:59;3;3;
46681;PMS5003;34101;53.430;-2.224;2022-08-19T08:49:33;1;1;
46681;PMS5003;34101;53.430;-2.224;2022-08-19T08:52:10;4;3;
46681;PMS5003;34101;53.430;-2.224;2022-08-19T08:54:43;6;2;
46681;PMS5003;34101;53.430;-2.224;2022-08-19T08:57:13;5;3;
46681;PMS5003;34101;53.430;-2.224;2022-08-19T08:59:46;3;2;
46681;PMS5003;34101;53.430;-2.224;2022-08-19T09:02:17;5;2;
46681;PMS5003;34101;53.430;-2.224;2022-08-19T09:04:45;3;3;
46681;PMS5003;34101;53.430;-2.224;2022-08-19T09:07:30;3;2;
46681;PMS5003;34101;53.430;-2.224;2022-08-19T09:10:11;2;2;
46681;PMS5003;34101;53.430;-2.224;2022-08-19T09:12:52;4;2;
46681;PMS5003;34101;53.430;-2.224;2022-08-19T09:15:29;5;2;
46681;PMS5003;34101;53.430;-2.224;2022-08-19T09:18:04;3;3;
46681;PMS5003;34101;53.430;-2.224;2022-08-19T09:20:31;4;4;
46681;PMS5003;34101;53.430;-2.224;2022-08-19T09:22:59;5;3;
46681;PMS5003;34101;53.430;-2.224;2022-08-19T09:25:27;3;3;
46681;PMS5003;34101;53.430;-2.224;2022-08-19T09:27:55;4;3;
46681;PMS5003;34101;53.430;-2.224;2022-08-19T09:30:24;4;2;
46681;PMS5003;34101;53.430;-2.224;2022-08-19T09:32:53;4;2;
46681;PMS5003;34101;53.430;-2.224;2022-08-19T09:35:22;2;1;
46681;PMS5003;34101;53.430;-2.224;2022-08-19T09:37:51;5;2;
46681;PMS5003;34101;53.430;-2.224;2022-08-19T09:40:18;3;3;
46681;PMS5003;34101;53.430;-2.224;2022-08-19T09:42:46;6;3;
46681;PMS5003;34101;53.430;-2.224;2022-08-19T09:45:14;4;2;
46681;PMS5003;34101;53.430;-2.224;2022-08-19T09:47:41;1;1;
46681;PMS5003;34101;53.430;-2.224;2022-08-19T09:50:10;2;2;
46681;PMS5003;34101;53.430;-2.224;2022-08-19T09:52:39;4;3;
46681;PMS5003;34101;53.430;-2.224;2022-08-19T09:55:08;2;1;
46681;PMS5003;34101;53.430;-2.224;2022-08-19T09:57:36;4;2;
46681;PMS5003;34101;53.430;-2.224;2022-08-19T10:00:09;3;2;
46681;PMS5003;34101;53.430;-2.224;2022-08-19T10:02:37;4;3;
46681;PMS5003;34101;53.430;-2.224;2022-08-19T10:05:04;3;3;
46681;PMS5003;34101;53.430;-2.224;2022-08-19T10:07:31;5;5;
46681;PMS5003;34101;53.430;-2.224;2022-08-19T10:09:59;4;4;
46681;PMS5003;34101;53.430;-2.224;2022-08-19T10:12:26;4;4;
46681;PMS5003;34101;53.430;-2.224;2022-08-19T10:14:54;2;2;
46681;PMS5003;34101;53.430;-2.224;2022-08-19T10:17:21;4;3;
46681;PMS5003;34101;53.430;-2.224;2022-08-19T10:19:48;2;2;
46681;PMS5003;34101;53.430;-2.224;2022-08-19T10:22:17;2;1;
46681;PMS5003;34101;53.430;-2.224;2022-08-19T10:24:45;3;3;
46681;PMS5003;34101;53.430;-2.224;2022-08-19T10:27:12;2;1;
46681;PMS5003;34101;53.430;-2.224;2022-08-19T10:29:40;4;3;
46681;PMS5003;34101;53.430;-2.224;2022-08-19T10:32:08;5;4;
46681;PMS5003;34101;53.430;-2.224;2022-08-19T10:34:35;2;2;
46681;PMS5003;34101;53.430;-2.224;2022-08-19T10:37:04;3;2;
46681;PMS5003;34101;53.430;-2.224;2022-08-19T10:39:32;2;2;
46681;PMS5003;34101;53.430;-2.224;2022-08-19T10:42:04;3;1;
46681;PMS5003;34101;53.430;-2.224;2022-08-19T10:44:32;4;2;
46681;PMS5003;34101;53.430;-2.224;2022-08-19T10:47:00;5;3;
46681;PMS5003;34101;53.430;-2.224;2022-08-19T10:49:27;1;1;
46681;PMS5003;34101;53.430;-2.224;2022-08-19T10:51:54;2;2;
46681;PMS5003;34101;53.430;-2.224;2022-08-19T10:54:22;1;1;
46681;PMS5003;34101;53.430;-2.224;2022-08-19T10:56:49;2;2;
46681;PMS5003;34101;53.430;-2.224;2022-08-19T10:59:17;1;1;
46681;PMS5003;34101;53.430;-2.224;2022-08-19T11:01:46;1;1;
46681;PMS5003;34101;53.430;-2.224;2022-08-19T11:04:14;3;2;
46681;PMS5003;34101;53.430;-2.224;2022-08-19T11:06:43;2;1;
46681;PMS5003;34101;53.430;-2.224;2022-08-19T11:09:11;0;0;
46681;PMS5003;34101;53.430;-2.224;2022-08-19T11:11:38;1;1;
46681;PMS5003;34101;53.430;-2.224;2022-08-19T11:14:06;1;1;
46681;PMS5003;34101;53.430;-2.224;2022-08-19T11:16:34;2;1;
46681;PMS5003;34101;53.430;-2.224;2022-08-19T11:19:02;0;0;
46681;PMS5003;34101;53.430;-2.224;2022-08-19T11:21:30;3;1;
46681;PMS5003;34101;53.430;-2.224;2022-08-19T11:24:00;0;0;
46681;PMS5003;34101;53.430;-2.224;2022-08-19T11:26:30;1;1;
46681;PMS5003;34101;53.430;-2.224;2022-08-19T11:28:58;2;1;
46681;PMS5003;34101;53.430;-2.224;2022-08-19T11:31:27;0;0;
46681;PMS5003;34101;53.430;-2.224;2022-08-19T11:33:56;0;0;
46681;PMS5003;34101;53.430;-2.224;2022-08-19T11:36:25;2;2;
46681;PMS5003;34101;53.430;-2.224;2022-08-19T11:38:53;3;1;
46681;PMS5003;34101;53.430;-2.224;2022-08-19T11:41:22;5;2;
46681;PMS5003;34101;53.430;-2.224;2022-08-19T11:43:50;1;1;
46681;PMS5003;34101;53.430;-2.224;2022-08-19T11:46:18;1;1;
46681;PMS5003;34101;53.430;-2.224;2022-08-19T11:48:46;1;1;
46681;PMS5003;34101;53.430;-2.224;2022-08-19T11:51:14;1;1;
46681;PMS5003;34101;53.430;-2.224;2022-08-19T11:53:43;1;1;
46681;PMS5003;34101;53.430;-2.224;2022-08-19T11:56:11;3;2;
46681;PMS5003;34101;53.430;-2.224;2022-08-19T11:58:38;1;1;
46681;PMS5003;34101;53.430;-2.224;2022-08-19T12:01:06;1;1;
46681;PMS5003;34101;53.430;-2.224;2022-08-19T12:03:35;1;1;
46681;PMS5003;34101;53.430;-2.224;2022-08-19T12:06:03;0;0;
46681;PMS5003;34101;53.430;-2.224;2022-08-19T12:08:32;1;1;
46681;PMS5003;34101;53.430;-2.224;2022-08-19T12:10:59;1;1;
46681;PMS5003;34101;53.430;-2.224;2022-08-19T12:13:27;0;0;
46681;PMS5003;34101;53.430;-2.224;2022-08-19T12:15:55;0;0;
46681;PMS5003;34101;53.430;-2.224;2022-08-19T12:18:22;2;0;
46681;PMS5003;34101;53.430;-2.224;2022-08-19T12:20:50;2;2;
46681;PMS5003;34101;53.430;-2.224;2022-08-19T12:23:18;1;0;
46681;PMS5003;34101;53.430;-2.224;2022-08-19T12:25:47;0;0;
46681;PMS5003;34101;53.430;-2.224;2022-08-19T12:28:15;2;2;
46681;PMS5003;34101;53.430;-2.224;2022-08-19T12:30:43;1;1;
46681;PMS5003;34101;53.430;-2.224;2022-08-19T12:33:10;0;0;
46681;PMS5003;34101;53.430;-2.224;2022-08-19T12:35:39;1;0;
46681;PMS5003;34101;53.430;-2.224;2022-08-19T12:38:06;0;0;
46681;PMS5003;34101;53.430;-2.224;2022-08-19T12:40:34;1;1;
46681;PMS5003;34101;53.430;-2.224;2022-08-19T12:43:04;1;1;
46681;PMS5003;34101;53.430;-2.224;2022-08-19T12:45:32;0;0;
46681;PMS5003;34101;53.430;-2.224;2022-08-19T12:48:00;1;1;
46681;PMS5003;34101;53.430;-2.224;2022-08-19T12:50:27;0;0;
46681;PMS5003;34101;53.430;-2.224;2022-08-19T12:52:55;0;0;
46681;PMS5003;34101;53.430;-2.224;2022-08-19T12:55:23;2;2;
46681;PMS5003;34101;53.430;-2.224;2022-08-19T12:57:50;2;1;
46681;PMS5003;34101;53.430;-2.224;2022-08-19T13:00:19;2;0;
46681;PMS5003;34101;53.430;-2.224;2022-08-19T13:02:48;2;1;
46681;PMS5003;34101;53.430;-2.224;2022-08-19T13:05:19;1;1;
46681;PMS5003;34101;53.430;-2.224;2022-08-19T13:07:49;2;2;
46681;PMS5003;34101;53.430;-2.224;2022-08-19T13:10:18;1;1;
46681;PMS5003;34101;53.430;-2.224;2022-08-19T13:12:47;1;1;
46681;PMS5003;34101;53.430;-2.224;2022-08-19T13:15:16;0;0;
46681;PMS5003;34101;53.430;-2.224;2022-08-19T13:17:44;1;1;
46681;PMS5003;34101;53.430;-2.224;2022-08-19T13:20:12;0;0;
46681;PMS5003;34101;53.430;-2.224;2022-08-19T13:22:39;2;1;
46681;PMS5003;34101;53.430;-2.224;2022-08-19T13:25:07;3;1;
46681;PMS5003;34101;53.430;-2.224;2022-08-19T13:27:35;1;1;
46681;PMS5003;34101;53.430;-2.224;2022-08-19T13:30:04;2;2;
46681;PMS5003;34101;53.430;-2.224;2022-08-19T13:32:33;1;1;
46681;PMS5003;34101;53.430;-2.224;2022-08-19T13:35:00;1;1;
46681;PMS5003;34101;53.430;-2.224;2022-08-19T13:37:28;0;0;
46681;PMS5003;34101;53.430;-2.224;2022-08-19T13:39:55;3;1;
46681;PMS5003;34101;53.430;-2.224;2022-08-19T13:42:23;2;2;
46681;PMS5003;34101;53.430;-2.224;2022-08-19T13:44:53;1;1;
46681;PMS5003;34101;53.430;-2.224;2022-08-19T13:47:20;1;1;
46681;PMS5003;34101;53.430;-2.224;2022-08-19T13:49:47;0;0;
46681;PMS5003;34101;53.430;-2.224;2022-08-19T13:52:15;0;0;
46681;PMS5003;34101;53.430;-2.224;2022-08-19T13:54:44;1;0;
46681;PMS5003;34101;53.430;-2.224;2022-08-19T13:57:13;4;1;
46681;PMS5003;34101;53.430;-2.224;2022-08-19T13:59:41;1;1;
46681;PMS5003;34101;53.430;-2.224;2022-08-19T14:02:08;1;1;
46681;PMS5003;34101;53.430;-2.224;2022-08-19T14:04:35;1;1;
46681;PMS5003;34101;53.430;-2.224;2022-08-19T14:07:04;0;0;
46681;PMS5003;34101;53.430;-2.224;2022-08-19T14:09:31;2;0;
46681;PMS5003;34101;53.430;-2.224;2022-08-19T14:11:59;3;1;
46681;PMS5003;34101;53.430;-2.224;2022-08-19T14:14:26;1;1;
46681;PMS5003;34101;53.430;-2.224;2022-08-19T14:16:53;2;0;
46681;PMS5003;34101;53.430;-2.224;2022-08-19T14:19:21;1;1;
46681;PMS5003;34101;53.430;-2.224;2022-08-19T14:21:48;0;0;
46681;PMS5003;34101;53.430;-2.224;2022-08-19T14:24:16;1;1;
46681;PMS5003;34101;53.430;-2.224;2022-08-19T14:26:43;1;1;
46681;PMS5003;34101;53.430;-2.224;2022-08-19T14:29:10;2;0;
46681;PMS5003;34101;53.430;-2.224;2022-08-19T14:31:38;0;0;
46681;PMS5003;34101;53.430;-2.224;2022-08-19T14:34:05;0;0;
46681;PMS5003;34101;53.430;-2.224;2022-08-19T14:36:33;2;2;
46681;PMS5003;34101;53.430;-2.224;2022-08-19T14:39:02;1;0;
46681;PMS5003;34101;53.430;-2.224;2022-08-19T14:41:30;1;1;
46681;PMS5003;34101;53.430;-2.224;2022-08-19T14:43:58;2;1;
46681;PMS5003;34101;53.430;-2.224;2022-08-19T14:46:26;3;1;
46681;PMS5003;34101;53.430;-2.224;2022-08-19T14:48:55;1;0;
46681;PMS5003;34101;53.430;-2.224;2022-08-19T14:51:23;1;1;
46681;PMS5003;34101;53.430;-2.224;2022-08-19T14:53:51;2;2;
46681;PMS5003;34101;53.430;-2.224;2022-08-19T14:56:20;1;1;
46681;PMS5003;34101;53.430;-2.224;2022-08-19T14:58:50;2;1;
46681;PMS5003;34101;53.430;-2.224;2022-08-19T15:01:18;0;0;
46681;PMS5003;34101;53.430;-2.224;2022-08-19T15:03:46;1;1;
46681;PMS5003;34101;53.430;-2.224;2022-08-19T15:06:15;2;2;
46681;PMS5003;34101;53.430;-2.224;2022-08-19T15:08:42;0;0;
46681;PMS5003;34101;53.430;-2.224;2022-08-19T15:11:10;1;1;
46681;PMS5003;34101;53.430;-2.224;2022-08-19T15:13:40;1;1;
46681;PMS5003;34101;53.430;-2.224;2022-08-19T15:16:07;1;0;
46681;PMS5003;34101;53.430;-2.224;2022-08-19T15:18:34;2;1;
46681;PMS5003;34101;53.430;-2.224;2022-08-19T15:21:03;3;1;
46681;PMS5003;34101;53.430;-2.224;2022-08-19T15:23:31;0;0;
46681;PMS5003;34101;53.430;-2.224;2022-08-19T15:25:58;1;1;
46681;PMS5003;34101;53.430;-2.224;2022-08-19T15:28:26;0;0;
46681;PMS5003;34101;53.430;-2.224;2022-08-19T15:30:53;1;1;
46681;PMS5003;34101;53.430;-2.224;2022-08-19T15:33:21;0;0;
46681;PMS5003;34101;53.430;-2.224;2022-08-19T15:35:48;1;1;
46681;PMS5003;34101;53.430;-2.224;2022-08-19T15:38:15;1;1;
46681;PMS5003;34101;53.430;-2.224;2022-08-19T15:40:43;0;0;
46681;PMS5003;34101;53.430;-2.224;2022-08-19T15:43:10;1;1;
46681;PMS5003;34101;53.430;-2.224;2022-08-19T15:45:38;2;1;
46681;PMS5003;34101;53.430;-2.224;2022-08-19T15:48:05;1;1;
46681;PMS5003;34101;53.430;-2.224;2022-08-19T15:50:33;1;1;
46681;PMS5003;34101;53.430;-2.224;2022-08-19T15:53:01;1;1;
46681;PMS5003;34101;53.430;-2.224;2022-08-19T15:55:32;3;1;
46681;PMS5003;34101;53.430;-2.224;2022-08-19T15:58:01;1;0;
46681;PMS5003;34101;53.430;-2.224;2022-08-19T16:00:32;2;1;
46681;PMS5003;34101;53.430;-2.224;2022-08-19T16:02:59;0;0;
46681;PMS5003;34101;53.430;-2.224;2022-08-19T16:05:27;2;1;
46681;PMS5003;34101;53.430;-2.224;2022-08-19T16:07:54;2;0;
46681;PMS5003;34101;53.430;-2.224;2022-08-19T16:10:21;1;1;
46681;PMS5003;34101;53.430;-2.224;2022-08-19T16:12:49;2;1;
46681;PMS5003;34101;53.430;-2.224;2022-08-19T16:15:16;1;1;
46681;PMS5003;34101;53.430;-2.224;2022-08-19T16:17:44;1;1;
46681;PMS5003;34101;53.430;-2.224;2022-08-19T16:20:11;1;1;
46681;PMS5003;34101;53.430;-2.224;2022-08-19T16:22:39;2;0;
46681;PMS5003;34101;53.430;-2.224;2022-08-19T16:25:08;2;1;
46681;PMS5003;34101;53.430;-2.224;2022-08-19T16:27:35;1;1;
46681;PMS5003;34101;53.430;-2.224;2022-08-19T16:30:03;0;0;
46681;PMS5003;34101;53.430;-2.224;2022-08-19T16:32:32;1;0;
46681;PMS5003;34101;53.430;-2.224;2022-08-19T16:35:01;1;1;
46681;PMS5003;34101;53.430;-2.224;2022-08-19T16:37:29;1;1;
46681;PMS5003;34101;53.430;-2.224;2022-08-19T16:39:56;2;2;